createdAt,value
2018-05-21T00:02:06.017Z,38.17
2018-05-21T00:04:35.015Z,39.73
2018-05-21T00:07:04.606Z,41.83
2018-05-21T00:09:33.787Z,42.87
2018-05-21T00:12:02.589Z,39.50
2018-05-21T00:14:32.451Z,40.30
2018-05-21T00:17:01.722Z,39.70
2018-05-21T00:19:30.713Z,42.30
2018-05-21T00:21:59.717Z,38.70
2018-05-21T00:24:29.019Z,41.17
2018-05-21T00:26:58.922Z,41.37
2018-05-21T00:29:28.018Z,43.17
2018-05-21T00:31:57.802Z,42.30
2018-05-21T00:34:26.816Z,41.13
2018-05-21T00:36:55.814Z,45.83
2018-05-21T00:39:24.934Z,46.47
2018-05-21T00:41:55.442Z,44.87
2018-05-21T00:44:25.268Z,48.47
2018-05-21T00:46:55.109Z,46.60
2018-05-21T00:49:24.124Z,46.47
2018-05-21T00:51:53.110Z,46.50
2018-05-21T00:54:22.747Z,47.70
2018-05-21T00:56:51.938Z,48.87
2018-05-21T00:59:21.038Z,47.13
2018-05-21T01:01:50.337Z,50.50
2018-05-21T01:04:19.474Z,45.80
2018-05-21T01:06:49.095Z,41.10
2018-05-21T01:09:18.455Z,45.33
2018-05-21T01:11:47.366Z,47.57
2018-05-21T01:14:17.473Z,44.70
2018-05-21T01:16:46.702Z,44.00
2018-05-21T01:19:15.838Z,41.50
2018-05-21T01:21:44.730Z,42.17
2018-05-21T01:24:14.411Z,42.40
2018-05-21T01:26:44.218Z,41.07
2018-05-21T01:29:13.209Z,42.23
2018-05-21T01:31:42.369Z,40.93
2018-05-21T01:34:12.222Z,44.03
2018-05-21T01:36:41.922Z,42.60
2018-05-21T01:39:12.402Z,42.20
2018-05-21T01:41:41.285Z,44.37
2018-05-21T01:44:12.030Z,45.80
2018-05-21T01:46:41.457Z,43.33
2018-05-21T01:49:10.723Z,46.10
2018-05-21T01:51:39.854Z,41.40
2018-05-21T01:54:09.129Z,48.13
2018-05-21T01:56:38.198Z,44.23
2018-05-21T01:59:07.189Z,49.80
2018-05-21T02:01:36.876Z,42.90
2018-05-21T02:04:05.794Z,44.37
2018-05-21T02:06:35.690Z,45.17
2018-05-21T02:09:06.690Z,43.67
2018-05-21T02:11:35.749Z,42.37
2018-05-21T02:14:04.667Z,42.50
2018-05-21T02:16:34.530Z,43.67
2018-05-21T02:19:04.411Z,44.97
2018-05-21T02:21:33.470Z,41.63
2018-05-21T02:24:03.004Z,43.90
2018-05-21T02:26:32.502Z,44.47
2018-05-21T02:29:01.503Z,40.83
2018-05-21T02:31:30.933Z,44.07
2018-05-21T02:34:00.310Z,40.83
2018-05-21T02:36:29.409Z,39.10
2018-05-21T02:38:58.851Z,41.57
2018-05-21T02:41:28.064Z,40.77
2018-05-21T02:43:57.179Z,47.97
2018-05-21T02:46:27.371Z,40.33
2018-05-21T02:48:57.209Z,35.07
2018-05-21T02:51:26.270Z,41.50
2018-05-21T02:53:55.646Z,34.33
2018-05-21T02:56:24.614Z,40.13
2018-05-21T02:58:53.629Z,54.87
2018-05-21T03:01:23.178Z,38.23
2018-05-21T03:03:53.023Z,39.70
2018-05-21T03:06:22.119Z,46.77
2018-05-21T03:08:51.331Z,36.47
2018-05-21T03:11:21.323Z,44.97
2018-05-21T03:13:51.050Z,45.20
2018-05-21T03:16:21.209Z,41.17
2018-05-21T03:18:50.370Z,47.77
2018-05-21T03:21:19.422Z,34.20
2018-05-21T03:23:48.666Z,45.87
2018-05-21T03:26:18.420Z,38.00
2018-05-21T03:28:47.421Z,33.53
2018-05-21T03:31:16.537Z,30.50
2018-05-21T03:33:45.502Z,34.73
2018-05-21T03:36:14.391Z,32.80
2018-05-21T03:38:43.592Z,41.63
2018-05-21T03:41:12.586Z,37.50
2018-05-21T03:43:41.478Z,29.13
2018-05-21T03:46:10.709Z,40.40
2018-05-21T03:48:41.838Z,30.23
2018-05-21T03:51:10.942Z,38.30
2018-05-21T03:53:40.314Z,38.80
2018-05-21T03:56:09.415Z,48.77
2018-05-21T03:58:50.092Z,40.07
2018-05-21T04:01:31.396Z,41.13
2018-05-21T04:04:00.942Z,39.53
2018-05-21T04:06:30.070Z,35.53
2018-05-21T04:08:59.238Z,37.87
2018-05-21T04:11:28.447Z,40.47
2018-05-21T04:13:58.443Z,37.40
2018-05-21T04:16:28.053Z,38.00
2018-05-21T04:18:57.406Z,35.30
2018-05-21T04:21:26.411Z,47.83
2018-05-21T04:23:55.400Z,42.60
2018-05-21T04:26:24.598Z,34.07
2018-05-21T04:28:53.595Z,35.03
2018-05-21T04:31:22.582Z,38.63
2018-05-21T04:33:51.715Z,37.40
2018-05-21T04:36:20.759Z,41.20
2018-05-21T04:38:49.777Z,32.73
2018-05-21T04:41:18.906Z,34.00
2018-05-21T04:43:48.675Z,33.20
2018-05-21T04:46:17.673Z,32.43
2018-05-21T04:48:48.095Z,27.17
2018-05-21T04:51:17.266Z,34.17
2018-05-21T04:53:46.363Z,23.17
2018-05-21T04:56:15.571Z,19.80
2018-05-21T04:58:45.571Z,19.77
2018-05-21T05:01:15.293Z,23.67
2018-05-21T05:03:44.497Z,20.67
2018-05-21T05:06:13.495Z,16.00
2018-05-21T05:08:43.491Z,25.88
2018-05-21T05:11:13.598Z,26.13
2018-05-21T05:13:42.511Z,22.70
2018-05-21T05:16:11.341Z,26.00
2018-05-21T05:18:40.478Z,25.13
2018-05-21T05:21:10.340Z,22.10
2018-05-21T05:23:39.446Z,20.53
2018-05-21T05:26:08.621Z,19.03
2018-05-21T05:28:38.389Z,37.35
2018-05-21T05:31:07.618Z,27.37
2018-05-21T05:33:36.930Z,26.80
2018-05-21T05:36:06.013Z,26.95
2018-05-21T05:38:35.057Z,28.35
2018-05-21T05:41:04.602Z,29.00
2018-05-21T05:43:33.458Z,33.25
2018-05-21T05:46:02.467Z,27.00
2018-05-21T05:48:31.781Z,24.02
2018-05-21T05:51:02.087Z,29.60
2018-05-21T05:53:32.063Z,23.30
2018-05-21T05:56:01.368Z,26.83
2018-05-21T05:58:30.367Z,24.33
2018-05-21T06:00:59.362Z,20.10
2018-05-21T06:03:29.042Z,25.37
2018-05-21T06:05:58.806Z,29.90
2018-05-21T06:08:27.797Z,23.47
2018-05-21T06:10:57.078Z,28.60
2018-05-21T06:13:27.050Z,23.05
2018-05-21T06:15:56.937Z,29.13
2018-05-21T06:18:25.902Z,21.70
2018-05-21T06:20:54.893Z,22.62
2018-05-21T06:23:24.130Z,23.67
2018-05-21T06:25:53.979Z,20.37
2018-05-21T06:28:22.998Z,18.33
2018-05-21T06:30:52.335Z,18.27
2018-05-21T06:33:21.435Z,16.62
2018-05-21T06:35:50.501Z,14.80
2018-05-21T06:38:21.135Z,20.10
2018-05-21T06:40:50.138Z,17.77
2018-05-21T06:43:20.101Z,16.10
2018-05-21T06:45:49.598Z,21.35
2018-05-21T06:48:18.650Z,21.80
2018-05-21T06:50:47.651Z,17.12
2018-05-21T06:53:19.211Z,17.12
2018-05-21T06:55:49.015Z,15.70
2018-05-21T06:58:18.115Z,25.97
2018-05-21T07:00:48.439Z,25.20
2018-05-21T07:03:17.547Z,20.30
2018-05-21T07:05:47.431Z,27.87
2018-05-21T07:08:16.741Z,30.30
2018-05-21T07:10:45.849Z,24.83
2018-05-21T07:13:14.981Z,28.27
2018-05-21T07:15:44.458Z,35.72
2018-05-21T07:18:13.594Z,40.40
2018-05-21T07:20:43.289Z,32.70
2018-05-21T07:23:13.178Z,30.45
2018-05-21T07:25:43.152Z,27.65
2018-05-21T07:28:13.075Z,29.73
2018-05-21T07:30:42.033Z,29.12
2018-05-21T07:33:11.025Z,25.73
2018-05-21T07:35:40.261Z,38.40
2018-05-21T07:38:10.040Z,23.10
2018-05-21T07:40:39.038Z,31.92
2018-05-21T07:43:08.231Z,18.83
2018-05-21T07:45:37.194Z,25.27
2018-05-21T07:48:06.290Z,28.60
2018-05-21T07:50:35.521Z,23.10
2018-05-21T07:53:04.596Z,32.67
2018-05-21T07:55:35.854Z,27.10
2018-05-21T07:58:05.121Z,22.57
2018-05-21T08:00:34.959Z,27.43
2018-05-21T08:03:04.192Z,23.40
2018-05-21T08:05:33.179Z,26.90
2018-05-21T08:08:02.174Z,22.60
2018-05-21T08:10:31.414Z,24.33
2018-05-21T08:13:01.258Z,25.30
2018-05-21T08:15:31.007Z,22.40
2018-05-21T08:18:00.230Z,26.93
2018-05-21T08:20:29.453Z,21.33
2018-05-21T08:22:58.629Z,30.63
2018-05-21T08:25:28.078Z,23.80
2018-05-21T08:27:57.178Z,23.30
2018-05-21T08:30:27.141Z,27.50
2018-05-21T08:32:56.513Z,22.60
2018-05-21T08:35:25.511Z,21.10
2018-05-21T08:37:54.582Z,20.83
2018-05-21T08:40:24.401Z,22.67
2018-05-21T08:42:53.577Z,20.77
2018-05-21T08:45:22.750Z,25.53
2018-05-21T08:47:53.739Z,18.40
2018-05-21T08:50:23.733Z,21.03
2018-05-21T08:52:52.910Z,18.43
2018-05-21T08:55:22.179Z,21.20
2018-05-21T08:57:52.476Z,21.30
2018-05-21T09:00:21.656Z,20.40
2018-05-21T09:02:50.693Z,18.47
2018-05-21T09:05:19.692Z,19.83
2018-05-21T09:07:48.861Z,19.17
2018-05-21T09:10:17.867Z,18.07
2018-05-21T09:12:47.860Z,24.27
2018-05-21T09:15:17.838Z,23.13
2018-05-21T09:17:46.825Z,19.43
2018-05-21T09:20:15.820Z,17.43
2018-05-21T09:22:45.181Z,19.37
2018-05-21T09:25:14.451Z,18.50
2018-05-21T09:27:43.641Z,20.87
2018-05-21T09:30:12.913Z,16.70
2018-05-21T09:32:42.010Z,16.53
2018-05-21T09:35:11.107Z,20.43
2018-05-21T09:37:40.283Z,17.97
2018-05-21T09:40:09.198Z,17.67
2018-05-21T09:42:38.275Z,24.63
2018-05-21T09:45:07.576Z,16.60
2018-05-21T09:47:37.442Z,16.90
2018-05-21T09:50:06.582Z,24.23
2018-05-21T09:52:35.815Z,17.60
2018-05-21T09:55:04.815Z,17.67
2018-05-21T09:57:33.902Z,18.37
2018-05-21T10:00:05.054Z,22.30
2018-05-21T10:02:34.050Z,21.17
2018-05-21T10:05:03.047Z,20.37
2018-05-21T10:07:32.378Z,20.10
2018-05-21T10:10:02.155Z,21.20
2018-05-21T10:12:31.247Z,23.13
2018-05-21T10:15:00.391Z,23.47
2018-05-21T10:17:29.261Z,28.03
2018-05-21T10:19:58.315Z,22.77
2018-05-21T10:22:28.559Z,22.13
2018-05-21T10:24:57.654Z,22.33
2018-05-21T10:27:27.345Z,21.37
2018-05-21T10:29:56.726Z,20.53
2018-05-21T10:32:25.898Z,22.07
2018-05-21T10:34:56.805Z,21.93
2018-05-21T10:37:25.902Z,19.27
2018-05-21T10:39:55.075Z,20.40
2018-05-21T10:42:25.085Z,21.53
2018-05-21T10:44:54.842Z,22.63
2018-05-21T10:47:23.802Z,21.17
2018-05-21T10:49:52.943Z,16.80
2018-05-21T10:52:21.921Z,17.67
2018-05-21T10:54:50.925Z,16.80
2018-05-21T10:57:20.146Z,17.53
2018-05-21T10:59:49.993Z,17.30
2018-05-21T11:02:20.310Z,15.57
2018-05-21T11:04:51.162Z,20.47
2018-05-21T11:07:20.295Z,17.60
2018-05-21T11:09:49.805Z,19.77
2018-05-21T11:12:18.865Z,18.37
2018-05-21T11:14:47.894Z,17.27
2018-05-21T11:17:17.033Z,17.97
2018-05-21T11:19:45.983Z,19.60
2018-05-21T11:22:14.983Z,18.47
2018-05-21T11:24:44.127Z,19.47
2018-05-21T11:27:13.950Z,21.20
2018-05-21T11:29:44.699Z,19.80
2018-05-21T11:32:14.693Z,20.23
2018-05-21T11:34:43.869Z,19.50
2018-05-21T11:37:13.219Z,20.50
2018-05-21T11:39:42.804Z,20.77
2018-05-21T11:42:11.750Z,18.37
2018-05-21T11:44:40.974Z,18.73
2018-05-21T11:47:09.895Z,18.97
2018-05-21T11:49:38.829Z,18.47
2018-05-21T11:52:08.175Z,16.73
2018-05-21T11:54:37.091Z,15.90
2018-05-21T11:57:06.019Z,18.83
2018-05-21T11:59:35.337Z,15.73
2018-05-21T12:02:06.077Z,16.80
2018-05-21T12:04:36.891Z,19.47
2018-05-21T12:07:06.089Z,15.97
2018-05-21T12:09:35.163Z,23.37
2018-05-21T12:12:04.601Z,18.27
2018-05-21T12:14:33.656Z,19.50
2018-05-21T12:17:02.749Z,18.13
2018-05-21T12:19:33.004Z,19.00
2018-05-21T12:22:02.278Z,18.07
2018-05-21T12:24:31.709Z,17.53
2018-05-21T12:27:00.807Z,16.47
2018-05-21T12:29:29.801Z,14.07
2018-05-21T12:31:59.522Z,15.40
2018-05-21T12:34:28.745Z,16.23
2018-05-21T12:36:57.868Z,15.23
2018-05-21T12:39:27.044Z,15.70
2018-05-21T12:41:56.522Z,21.47
2018-05-21T12:44:25.613Z,16.17
2018-05-21T12:46:54.760Z,17.97
2018-05-21T12:49:24.231Z,18.23
2018-05-21T12:51:53.218Z,17.90
2018-05-21T12:54:22.214Z,18.60
2018-05-21T12:56:51.410Z,19.33
2018-05-21T12:59:20.494Z,17.87
2018-05-21T13:01:49.453Z,18.67
2018-05-21T13:04:18.956Z,23.80
2018-05-21T13:06:50.771Z,18.87
2018-05-21T13:09:19.849Z,19.93
2018-05-21T13:11:49.654Z,20.83
2018-05-21T13:14:18.746Z,19.77
2018-05-21T13:16:48.858Z,19.60
2018-05-21T13:19:17.953Z,18.97
2018-05-21T13:21:46.949Z,19.57
2018-05-21T13:24:16.332Z,17.17
2018-05-21T13:26:46.360Z,17.67
2018-05-21T13:29:15.530Z,18.33
2018-05-21T13:31:45.185Z,14.50
2018-05-21T13:34:14.178Z,18.63
2018-05-21T13:36:43.178Z,16.00
2018-05-21T13:39:13.426Z,13.20
2018-05-21T13:41:42.522Z,14.60
2018-05-21T13:44:11.413Z,17.50
2018-05-21T13:46:40.800Z,13.90
2018-05-21T13:49:10.761Z,12.67
2018-05-21T13:51:39.903Z,14.50
2018-05-21T13:54:09.207Z,16.67
2018-05-21T13:56:38.310Z,12.00
2018-05-21T13:59:07.407Z,18.73
2018-05-21T14:01:36.638Z,17.47
2018-05-21T14:04:05.701Z,16.30
2018-05-21T14:06:35.609Z,13.80
2018-05-21T14:09:06.367Z,17.13
2018-05-21T14:11:35.470Z,14.53
2018-05-21T14:14:04.634Z,11.77
2018-05-21T14:16:34.123Z,19.90
2018-05-21T14:19:02.842Z,15.70
2018-05-21T14:21:31.914Z,12.90
2018-05-21T14:24:01.602Z,16.73
2018-05-21T14:26:31.390Z,14.73
2018-05-21T14:29:00.463Z,21.93
2018-05-21T14:31:29.653Z,16.60
2018-05-21T14:33:58.749Z,19.97
2018-05-21T14:36:27.881Z,17.30
2018-05-21T14:38:57.082Z,17.13
2018-05-21T14:41:27.353Z,13.43
2018-05-21T14:43:56.173Z,17.77
2018-05-21T14:46:25.666Z,19.07
2018-05-21T14:48:54.561Z,19.40
2018-05-21T14:51:23.600Z,15.80
2018-05-21T14:53:52.694Z,16.17
2018-05-21T14:56:21.221Z,16.10
2018-05-21T14:58:50.027Z,15.80
2018-05-21T15:01:19.366Z,19.13
2018-05-21T15:03:48.322Z,16.97
2018-05-21T15:06:17.417Z,22.27
2018-05-21T15:08:46.547Z,17.00
2018-05-21T15:11:16.643Z,18.40
2018-05-21T15:13:45.163Z,14.50
2018-05-21T15:16:14.618Z,16.37
2018-05-21T15:18:43.815Z,18.97
2018-05-21T15:21:12.921Z,16.43
2018-05-21T15:23:42.500Z,13.77
2018-05-21T15:26:11.530Z,18.50
2018-05-21T15:28:41.428Z,11.23
2018-05-21T15:31:10.874Z,18.70
2018-05-21T15:33:39.927Z,22.33
2018-05-21T15:36:10.152Z,14.40
2018-05-21T15:38:39.361Z,22.03
2018-05-21T15:41:08.254Z,15.53
2018-05-21T15:43:37.354Z,13.43
2018-05-21T15:46:07.204Z,19.43
2018-05-21T15:48:36.239Z,14.17
2018-05-21T15:51:05.146Z,16.20
2018-05-21T15:53:34.237Z,16.03
2018-05-21T15:56:03.191Z,23.97
2018-05-21T15:58:33.125Z,10.03
2018-05-21T16:01:02.394Z,17.30
2018-05-21T16:03:31.390Z,12.30
2018-05-21T16:06:00.487Z,14.50
2018-05-21T16:08:29.844Z,12.30
2018-05-21T16:10:58.858Z,13.80
2018-05-21T16:13:29.801Z,13.60
2018-05-21T16:16:00.174Z,12.27
2018-05-21T16:18:29.217Z,11.03
2018-05-21T16:20:58.218Z,15.20
2018-05-21T16:23:27.441Z,14.03
2018-05-21T16:25:56.344Z,14.37
2018-05-21T16:28:25.204Z,11.37
2018-05-21T16:30:55.316Z,14.80
2018-05-21T16:33:24.409Z,14.73
2018-05-21T16:35:53.505Z,16.70
2018-05-21T16:38:22.818Z,16.40
2018-05-21T16:40:51.814Z,13.23
2018-05-21T16:43:20.830Z,18.47
2018-05-21T16:45:50.305Z,15.90
2018-05-21T16:48:19.202Z,17.10
2018-05-21T16:50:48.199Z,12.00
2018-05-21T16:53:17.535Z,14.17
2018-05-21T16:55:46.585Z,16.80
2018-05-21T16:58:15.504Z,20.47
2018-05-21T17:00:45.618Z,18.53
2018-05-21T17:03:14.864Z,12.10
2018-05-21T17:05:43.904Z,14.00
2018-05-21T17:08:13.305Z,26.90
2018-05-21T17:10:42.307Z,11.30
2018-05-21T17:13:11.302Z,19.53
2018-05-21T17:15:42.204Z,14.83
2018-05-21T17:18:11.942Z,18.83
2018-05-21T17:20:41.105Z,13.03
2018-05-21T17:23:10.965Z,20.00
2018-05-21T17:25:40.802Z,18.73
2018-05-21T17:28:10.484Z,15.50
2018-05-21T17:30:40.557Z,15.70
2018-05-21T17:33:09.602Z,22.67
2018-05-21T17:35:39.242Z,10.33
2018-05-21T17:38:08.477Z,14.43
2018-05-21T17:40:37.692Z,16.43
2018-05-21T17:43:06.969Z,19.13
2018-05-21T17:45:35.570Z,19.37
2018-05-21T17:48:04.950Z,16.90
2018-05-21T17:50:33.395Z,19.63
2018-05-21T17:53:02.369Z,13.07
2018-05-21T17:55:30.990Z,14.03
2018-05-21T17:58:00.059Z,20.07
2018-05-21T18:00:30.205Z,12.97
2018-05-21T18:02:59.315Z,17.73
2018-05-21T18:05:28.824Z,15.00
2018-05-21T18:07:58.155Z,13.10
2018-05-21T18:10:27.010Z,15.50
2018-05-21T18:12:55.974Z,17.10
2018-05-21T18:15:26.118Z,14.37
2018-05-21T18:17:56.411Z,18.33
2018-05-21T18:20:26.171Z,17.17
2018-05-21T18:22:55.503Z,17.03
2018-05-21T18:25:24.463Z,18.77
2018-05-21T18:27:53.458Z,23.53
2018-05-21T18:30:22.790Z,23.87
2018-05-21T18:32:52.557Z,12.57
2018-05-21T18:35:22.242Z,19.30
2018-05-21T18:37:51.378Z,18.03
2018-05-21T18:40:20.321Z,21.47
2018-05-21T18:42:49.227Z,17.90
2018-05-21T18:45:18.309Z,20.47
2018-05-21T18:47:47.263Z,20.70
2018-05-21T18:50:16.355Z,18.30
2018-05-21T18:52:45.586Z,18.00
2018-05-21T18:55:14.701Z,21.97
2018-05-21T18:57:43.595Z,18.10
2018-05-21T19:00:12.751Z,22.40
2018-05-21T19:02:41.506Z,21.67
2018-05-21T19:05:11.406Z,25.00
2018-05-21T19:07:40.722Z,14.73
2018-05-21T19:10:10.406Z,17.40
2018-05-21T19:12:39.302Z,11.30
2018-05-21T19:15:08.419Z,16.97
2018-05-21T19:17:38.353Z,24.17
2018-05-21T19:20:08.202Z,27.23
2018-05-21T19:22:37.778Z,17.40
2018-05-21T19:25:06.845Z,18.03
2018-05-21T19:27:36.746Z,25.23
2018-05-21T19:30:06.023Z,22.87
2018-05-21T19:32:35.144Z,20.50
2018-05-21T19:35:04.605Z,18.10
2018-05-21T19:37:33.862Z,17.67
2018-05-21T19:40:02.962Z,15.80
2018-05-21T19:42:32.085Z,17.73
2018-05-21T19:45:01.262Z,21.53
2018-05-21T19:47:31.234Z,22.73
2018-05-21T19:50:00.436Z,20.43
2018-05-21T19:52:29.927Z,22.60
2018-05-21T19:54:58.908Z,18.30
2018-05-21T19:57:27.874Z,17.43
2018-05-21T19:59:57.176Z,18.73
2018-05-21T20:02:26.176Z,17.70
2018-05-21T20:04:55.165Z,27.37
2018-05-21T20:07:25.237Z,12.80
2018-05-21T20:09:54.305Z,20.13
2018-05-21T20:12:23.302Z,26.93
2018-05-21T20:14:52.515Z,14.30
2018-05-21T20:17:21.494Z,19.77
2018-05-21T20:19:51.015Z,23.37
2018-05-21T20:22:21.502Z,23.23
2018-05-21T20:24:50.499Z,19.03
2018-05-21T20:27:19.541Z,20.67
2018-05-21T20:29:48.658Z,18.57
2018-05-21T20:32:18.504Z,14.13
2018-05-21T20:34:47.531Z,74.90
2018-05-21T20:37:17.054Z,14.87
2018-05-21T20:39:46.137Z,18.43
2018-05-21T20:42:15.134Z,22.70
2018-05-21T20:44:44.566Z,18.23
2018-05-21T20:47:13.758Z,16.53
2018-05-21T20:49:42.856Z,17.63
2018-05-21T20:52:12.046Z,21.53
2018-05-21T20:54:41.118Z,18.07
2018-05-21T20:57:10.222Z,26.57
2018-05-21T20:59:39.597Z,14.80
2018-05-21T21:02:08.615Z,16.90
2018-05-21T21:04:37.581Z,20.97
2018-05-21T21:07:06.819Z,17.17
2018-05-21T21:09:35.891Z,15.57
2018-05-21T21:12:04.917Z,16.23
2018-05-21T21:14:34.145Z,22.47
2018-05-21T21:17:03.986Z,27.20
2018-05-21T21:19:33.014Z,20.80
2018-05-21T21:22:02.294Z,18.43
2018-05-21T21:24:32.643Z,17.30
2018-05-21T21:27:02.491Z,21.77
2018-05-21T21:29:32.166Z,19.43
2018-05-21T21:32:01.574Z,20.50
2018-05-21T21:34:30.779Z,18.43
2018-05-21T21:36:59.735Z,16.90
2018-05-21T21:39:28.739Z,14.13
2018-05-21T21:41:57.657Z,18.23
2018-05-21T21:44:26.542Z,19.57
2018-05-21T21:46:55.538Z,17.23
2018-05-21T21:49:24.710Z,15.47
2018-05-21T21:51:53.532Z,14.50
2018-05-21T21:54:22.622Z,17.97
2018-05-21T21:56:51.834Z,20.93
2018-05-21T21:59:20.721Z,13.43
2018-05-21T22:01:50.281Z,18.93
2018-05-21T22:04:19.357Z,27.60
2018-05-21T22:06:48.225Z,20.53
2018-05-21T22:09:17.078Z,25.90
2018-05-21T22:11:47.005Z,18.30
2018-05-21T22:14:16.187Z,26.07
2018-05-21T22:16:45.838Z,18.77
2018-05-21T22:19:15.381Z,36.30
2018-05-21T22:21:45.122Z,20.30
2018-05-21T22:24:13.946Z,22.13
2018-05-21T22:26:44.785Z,23.60
2018-05-21T22:29:13.773Z,19.47
2018-05-21T22:31:43.537Z,14.73
2018-05-21T22:34:12.850Z,19.23
2018-05-21T22:36:41.741Z,17.70
2018-05-21T22:39:10.424Z,21.50
2018-05-21T22:41:40.284Z,19.57
2018-05-21T22:44:09.497Z,21.93
2018-05-21T22:46:38.587Z,23.93
2018-05-21T22:49:07.442Z,16.23
2018-05-21T22:51:36.258Z,19.73
2018-05-21T22:54:05.256Z,24.27
2018-05-21T22:56:34.698Z,19.77
2018-05-21T22:59:03.422Z,26.40
2018-05-21T23:01:32.519Z,17.93
2018-05-21T23:04:02.629Z,21.70
2018-05-21T23:06:31.659Z,18.03
2018-05-21T23:09:00.753Z,24.20
2018-05-21T23:11:29.966Z,22.70
2018-05-21T23:13:59.130Z,24.03
2018-05-21T23:16:28.223Z,19.80
2018-05-21T23:18:58.266Z,18.40
2018-05-21T23:21:27.366Z,22.47
2018-05-21T23:23:56.358Z,26.40
2018-05-21T23:26:25.458Z,19.43
2018-05-21T23:28:55.019Z,27.70
2018-05-21T23:31:23.962Z,26.60
2018-05-21T23:33:53.090Z,38.57
2018-05-21T23:36:22.866Z,27.07
2018-05-21T23:38:51.936Z,28.70
2018-05-21T23:41:21.139Z,35.73
2018-05-21T23:43:50.138Z,34.70
2018-05-21T23:46:19.231Z,29.10
2018-05-21T23:48:49.373Z,29.10
2018-05-21T23:51:18.472Z,37.63
2018-05-21T23:53:47.371Z,32.03
2018-05-21T23:56:16.982Z,26.57
2018-05-21T23:58:46.046Z,25.27
